sensor_id;sensor_type;location;lat;lon;timestamp;P1;durP1;ratioP1;P2;durP2;ratioP2
7195;SDS011;3639;51.308;5.624;2024-01-15T00:00:16;42.93;;;17.43;;
7195;SDS011;3639;51.308;5.624;2024-01-15T00:02:42;45.37;;;16.77;;
7195;SDS011;3639;51.308;5.624;2024-01-15T00:05:07;46.00;;;18.40;;
7195;SDS011;3639;51.308;5.624;2024-01-15T00:07:33;43.57;;;18.10;;
7195;SDS011;3639;51.308;5.624;2024-01-15T00:09:59;41.77;;;17.10;;
7195;SDS011;3639;51.308;5.624;2024-01-15T00:12:24;30.00;;;15.00;;
7195;SDS011;3639;51.308;5.624;2024-01-15T00:14:50;37.93;;;15.40;;
7195;SDS011;3639;51.308;5.624;2024-01-15T00:17:15;33.10;;;14.23;;
7195;SDS011;3639;51.308;5.624;2024-01-15T00:19:41;42.30;;;15.67;;
7195;SDS011;3639;51.308;5.624;2024-01-15T00:22:06;28.20;;;13.77;;
7195;SDS011;3639;51.308;5.624;2024-01-15T00:24:32;27.60;;;12.63;;
7195;SDS011;3639;51.308;5.624;2024-01-15T00:26:57;28.77;;;14.40;;
7195;SDS011;3639;51.308;5.624;2024-01-15T00:29:23;31.53;;;13.53;;
7195;SDS011;3639;51.308;5.624;2024-01-15T00:31:49;28.70;;;13.07;;
7195;SDS011;3639;51.308;5.624;2024-01-15T00:34:14;26.63;;;12.50;;
7195;SDS011;3639;51.308;5.624;2024-01-15T00:36:40;26.87;;;12.63;;
7195;SDS011;3639;51.308;5.624;2024-01-15T00:39:05;27.63;;;12.70;;
7195;SDS011;3639;51.308;5.624;2024-01-15T00:41:31;26.73;;;12.90;;
7195;SDS011;3639;51.308;5.624;2024-01-15T00:43:56;25.03;;;12.93;;
7195;SDS011;3639;51.308;5.624;2024-01-15T00:46:22;26.83;;;13.27;;
7195;SDS011;3639;51.308;5.624;2024-01-15T00:48:47;22.63;;;11.03;;
7195;SDS011;3639;51.308;5.624;2024-01-15T00:51:13;21.83;;;11.27;;
7195;SDS011;3639;51.308;5.624;2024-01-15T00:53:39;22.20;;;11.63;;
7195;SDS011;3639;51.308;5.624;2024-01-15T00:56:05;28.47;;;10.90;;
7195;SDS011;3639;51.308;5.624;2024-01-15T00:58:30;20.73;;;11.23;;
7195;SDS011;3639;51.308;5.624;2024-01-15T01:00:56;20.67;;;9.77;;
7195;SDS011;3639;51.308;5.624;2024-01-15T01:03:21;22.40;;;11.27;;
7195;SDS011;3639;51.308;5.624;2024-01-15T01:05:50;21.97;;;10.07;;
7195;SDS011;3639;51.308;5.624;2024-01-15T01:08:16;20.30;;;10.70;;
7195;SDS011;3639;51.308;5.624;2024-01-15T01:10:41;26.13;;;11.63;;
7195;SDS011;3639;51.308;5.624;2024-01-15T01:13:07;24.67;;;12.13;;
7195;SDS011;3639;51.308;5.624;2024-01-15T01:15:33;25.53;;;12.20;;
7195;SDS011;3639;51.308;5.624;2024-01-15T01:17:59;23.30;;;11.87;;
7195;SDS011;3639;51.308;5.624;2024-01-15T01:20:24;24.37;;;11.13;;
7195;SDS011;3639;51.308;5.624;2024-01-15T01:22:50;27.43;;;13.03;;
7195;SDS011;3639;51.308;5.624;2024-01-15T01:25:16;26.67;;;12.77;;
7195;SDS011;3639;51.308;5.624;2024-01-15T01:27:41;28.37;;;13.73;;
7195;SDS011;3639;51.308;5.624;2024-01-15T01:30:07;32.53;;;14.47;;
7195;SDS011;3639;51.308;5.624;2024-01-15T01:32:33;31.60;;;13.40;;
7195;SDS011;3639;51.308;5.624;2024-01-15T01:34:59;25.93;;;12.40;;
7195;SDS011;3639;51.308;5.624;2024-01-15T01:37:24;27.63;;;13.00;;
7195;SDS011;3639;51.308;5.624;2024-01-15T01:39:50;27.57;;;13.20;;
7195;SDS011;3639;51.308;5.624;2024-01-15T01:42:15;27.60;;;12.87;;
7195;SDS011;3639;51.308;5.624;2024-01-15T01:44:41;22.97;;;12.57;;
7195;SDS011;3639;51.308;5.624;2024-01-15T01:47:07;24.27;;;12.60;;
7195;SDS011;3639;51.308;5.624;2024-01-15T01:49:32;24.03;;;12.60;;
7195;SDS011;3639;51.308;5.624;2024-01-15T01:52:00;23.63;;;12.07;;
7195;SDS011;3639;51.308;5.624;2024-01-15T01:54:28;29.00;;;13.27;;
7195;SDS011;3639;51.308;5.624;2024-01-15T01:56:55;24.40;;;12.73;;
7195;SDS011;3639;51.308;5.624;2024-01-15T01:59:21;25.00;;;12.00;;
7195;SDS011;3639;51.308;5.624;2024-01-15T02:01:48;24.93;;;12.50;;
7195;SDS011;3639;51.308;5.624;2024-01-15T02:04:15;23.23;;;12.60;;
7195;SDS011;3639;51.308;5.624;2024-01-15T02:06:41;24.00;;;12.40;;
7195;SDS011;3639;51.308;5.624;2024-01-15T02:09:07;24.47;;;12.53;;
7195;SDS011;3639;51.308;5.624;2024-01-15T02:11:34;24.43;;;12.00;;
7195;SDS011;3639;51.308;5.624;2024-01-15T02:13:59;24.73;;;12.07;;
7195;SDS011;3639;51.308;5.624;2024-01-15T02:16:25;18.67;;;11.23;;
7195;SDS011;3639;51.308;5.624;2024-01-15T02:18:51;20.77;;;10.47;;
7195;SDS011;3639;51.308;5.624;2024-01-15T02:21:17;18.27;;;11.67;;
7195;SDS011;3639;51.308;5.624;2024-01-15T02:23:42;22.03;;;11.60;;
7195;SDS011;3639;51.308;5.624;2024-01-15T02:26:08;21.00;;;11.20;;
7195;SDS011;3639;51.308;5.624;2024-01-15T02:28:34;22.73;;;11.43;;
7195;SDS011;3639;51.308;5.624;2024-01-15T02:31:00;22.53;;;11.70;;
7195;SDS011;3639;51.308;5.624;2024-01-15T02:33:25;16.33;;;10.10;;
7195;SDS011;3639;51.308;5.624;2024-01-15T02:35:51;14.17;;;9.77;;
7195;SDS011;3639;51.308;5.624;2024-01-15T02:38:17;19.17;;;9.67;;
7195;SDS011;3639;51.308;5.624;2024-01-15T02:40:43;13.53;;;9.17;;
7195;SDS011;3639;51.308;5.624;2024-01-15T02:43:10;17.90;;;8.67;;
7195;SDS011;3639;51.308;5.624;2024-01-15T02:45:35;16.57;;;9.17;;
7195;SDS011;3639;51.308;5.624;2024-01-15T02:48:01;19.47;;;8.87;;
7195;SDS011;3639;51.308;5.624;2024-01-15T02:50:27;15.93;;;8.77;;
7195;SDS011;3639;51.308;5.624;2024-01-15T02:52:53;16.63;;;9.87;;
7195;SDS011;3639;51.308;5.624;2024-01-15T02:55:18;13.43;;;8.97;;
7195;SDS011;3639;51.308;5.624;2024-01-15T02:57:45;24.60;;;9.03;;
7195;SDS011;3639;51.308;5.624;2024-01-15T03:00:11;17.13;;;10.07;;
7195;SDS011;3639;51.308;5.624;2024-01-15T03:02:37;20.77;;;9.90;;
7195;SDS011;3639;51.308;5.624;2024-01-15T03:05:08;13.67;;;8.60;;
7195;SDS011;3639;51.308;5.624;2024-01-15T03:07:34;13.10;;;8.80;;
7195;SDS011;3639;51.308;5.624;2024-01-15T03:10:00;19.00;;;10.20;;
7195;SDS011;3639;51.308;5.624;2024-01-15T03:12:26;18.80;;;10.33;;
7195;SDS011;3639;51.308;5.624;2024-01-15T03:14:52;19.07;;;10.13;;
7195;SDS011;3639;51.308;5.624;2024-01-15T03:17:18;21.43;;;10.03;;
7195;SDS011;3639;51.308;5.624;2024-01-15T03:19:43;21.30;;;10.70;;
7195;SDS011;3639;51.308;5.624;2024-01-15T03:22:09;24.93;;;11.07;;
7195;SDS011;3639;51.308;5.624;2024-01-15T03:24:35;22.40;;;12.07;;
7195;SDS011;3639;51.308;5.624;2024-01-15T03:27:01;25.33;;;12.23;;
7195;SDS011;3639;51.308;5.624;2024-01-15T03:29:27;18.83;;;11.67;;
7195;SDS011;3639;51.308;5.624;2024-01-15T03:31:53;18.47;;;10.43;;
7195;SDS011;3639;51.308;5.624;2024-01-15T03:34:18;17.27;;;9.97;;
7195;SDS011;3639;51.308;5.624;2024-01-15T03:36:44;16.63;;;10.47;;
7195;SDS011;3639;51.308;5.624;2024-01-15T03:39:10;18.43;;;10.50;;
7195;SDS011;3639;51.308;5.624;2024-01-15T03:41:36;17.00;;;9.83;;
7195;SDS011;3639;51.308;5.624;2024-01-15T03:44:01;18.83;;;8.97;;
7195;SDS011;3639;51.308;5.624;2024-01-15T03:46:27;18.90;;;8.90;;
7195;SDS011;3639;51.308;5.624;2024-01-15T03:48:53;18.23;;;9.40;;
7195;SDS011;3639;51.308;5.624;2024-01-15T03:51:18;18.40;;;9.97;;
7195;SDS011;3639;51.308;5.624;2024-01-15T03:53:44;16.70;;;7.97;;
7195;SDS011;3639;51.308;5.624;2024-01-15T03:56:10;13.83;;;8.07;;
7195;SDS011;3639;51.308;5.624;2024-01-15T03:58:35;14.10;;;7.37;;
7195;SDS011;3639;51.308;5.624;2024-01-15T04:01:01;11.53;;;6.90;;
7195;SDS011;3639;51.308;5.624;2024-01-15T04:03:27;13.37;;;7.93;;
7195;SDS011;3639;51.308;5.624;2024-01-15T04:05:52;13.60;;;7.10;;
7195;SDS011;3639;51.308;5.624;2024-01-15T04:08:18;9.63;;;6.03;;
7195;SDS011;3639;51.308;5.624;2024-01-15T04:10:43;14.43;;;6.63;;
7195;SDS011;3639;51.308;5.624;2024-01-15T04:13:09;13.83;;;5.63;;
7195;SDS011;3639;51.308;5.624;2024-01-15T04:15:35;7.10;;;5.03;;
7195;SDS011;3639;51.308;5.624;2024-01-15T04:18:01;9.37;;;5.77;;
7195;SDS011;3639;51.308;5.624;2024-01-15T04:20:27;8.37;;;4.87;;
7195;SDS011;3639;51.308;5.624;2024-01-15T04:22:53;13.20;;;5.60;;
7195;SDS011;3639;51.308;5.624;2024-01-15T04:25:19;8.50;;;5.47;;
7195;SDS011;3639;51.308;5.624;2024-01-15T04:27:44;10.83;;;6.17;;
7195;SDS011;3639;51.308;5.624;2024-01-15T04:30:10;10.23;;;6.00;;
7195;SDS011;3639;51.308;5.624;2024-01-15T04:32:36;12.00;;;6.33;;
7195;SDS011;3639;51.308;5.624;2024-01-15T04:35:02;10.60;;;6.67;;
7195;SDS011;3639;51.308;5.624;2024-01-15T04:37:28;12.07;;;7.00;;
7195;SDS011;3639;51.308;5.624;2024-01-15T04:39:53;13.00;;;6.73;;
7195;SDS011;3639;51.308;5.624;2024-01-15T04:42:20;9.07;;;6.33;;
7195;SDS011;3639;51.308;5.624;2024-01-15T04:44:46;9.93;;;6.73;;
7195;SDS011;3639;51.308;5.624;2024-01-15T04:47:12;11.80;;;7.03;;
7195;SDS011;3639;51.308;5.624;2024-01-15T04:49:37;17.27;;;6.60;;
7195;SDS011;3639;51.308;5.624;2024-01-15T04:52:03;9.07;;;5.27;;
7195;SDS011;3639;51.308;5.624;2024-01-15T04:54:28;14.60;;;5.33;;
7195;SDS011;3639;51.308;5.624;2024-01-15T04:56:54;10.60;;;4.90;;
7195;SDS011;3639;51.308;5.624;2024-01-15T04:59:19;5.40;;;4.50;;
7195;SDS011;3639;51.308;5.624;2024-01-15T05:01:45;8.73;;;4.10;;
7195;SDS011;3639;51.308;5.624;2024-01-15T05:04:10;7.53;;;3.43;;
7195;SDS011;3639;51.308;5.624;2024-01-15T05:06:36;7.07;;;4.27;;
7195;SDS011;3639;51.308;5.624;2024-01-15T05:09:02;8.70;;;4.53;;
7195;SDS011;3639;51.308;5.624;2024-01-15T05:11:29;8.73;;;5.00;;
7195;SDS011;3639;51.308;5.624;2024-01-15T05:13:54;10.87;;;5.63;;
7195;SDS011;3639;51.308;5.624;2024-01-15T05:16:20;12.27;;;5.47;;
7195;SDS011;3639;51.308;5.624;2024-01-15T05:18:45;12.27;;;7.57;;
7195;SDS011;3639;51.308;5.624;2024-01-15T05:21:11;12.17;;;8.37;;
7195;SDS011;3639;51.308;5.624;2024-01-15T05:23:37;14.60;;;8.57;;
7195;SDS011;3639;51.308;5.624;2024-01-15T05:26:03;19.07;;;9.57;;
7195;SDS011;3639;51.308;5.624;2024-01-15T05:28:29;17.27;;;10.97;;
7195;SDS011;3639;51.308;5.624;2024-01-15T05:30:54;15.97;;;11.23;;
7195;SDS011;3639;51.308;5.624;2024-01-15T05:33:20;15.77;;;11.43;;
7195;SDS011;3639;51.308;5.624;2024-01-15T05:35:47;19.40;;;11.37;;
7195;SDS011;3639;51.308;5.624;2024-01-15T05:38:12;20.10;;;12.23;;
7195;SDS011;3639;51.308;5.624;2024-01-15T05:40:38;20.77;;;11.57;;
7195;SDS011;3639;51.308;5.624;2024-01-15T05:43:04;24.73;;;12.47;;
7195;SDS011;3639;51.308;5.624;2024-01-15T05:45:30;18.80;;;11.93;;
7195;SDS011;3639;51.308;5.624;2024-01-15T05:47:56;22.50;;;11.47;;
7195;SDS011;3639;51.308;5.624;2024-01-15T05:50:22;18.63;;;10.17;;
7195;SDS011;3639;51.308;5.624;2024-01-15T05:52:47;20.53;;;12.23;;
7195;SDS011;3639;51.308;5.624;2024-01-15T05:55:13;20.93;;;12.00;;
7195;SDS011;3639;51.308;5.624;2024-01-15T05:57:39;20.50;;;11.53;;
7195;SDS011;3639;51.308;5.624;2024-01-15T06:00:06;16.60;;;10.90;;
7195;SDS011;3639;51.308;5.624;2024-01-15T06:02:33;23.00;;;12.63;;
7195;SDS011;3639;51.308;5.624;2024-01-15T06:04:59;22.07;;;11.97;;
7195;SDS011;3639;51.308;5.624;2024-01-15T06:07:24;21.17;;;11.50;;
7195;SDS011;3639;51.308;5.624;2024-01-15T06:09:50;19.67;;;10.87;;
7195;SDS011;3639;51.308;5.624;2024-01-15T06:12:16;22.50;;;12.60;;
7195;SDS011;3639;51.308;5.624;2024-01-15T06:14:41;22.80;;;12.77;;
7195;SDS011;3639;51.308;5.624;2024-01-15T06:17:07;16.07;;;10.33;;
7195;SDS011;3639;51.308;5.624;2024-01-15T06:19:33;18.67;;;11.07;;
7195;SDS011;3639;51.308;5.624;2024-01-15T06:21:58;20.63;;;10.90;;
7195;SDS011;3639;51.308;5.624;2024-01-15T06:24:24;15.27;;;10.60;;
7195;SDS011;3639;51.308;5.624;2024-01-15T06:26:50;19.77;;;11.30;;
7195;SDS011;3639;51.308;5.624;2024-01-15T06:29:15;18.77;;;11.03;;
7195;SDS011;3639;51.308;5.624;2024-01-15T06:31:41;17.70;;;11.67;;
7195;SDS011;3639;51.308;5.624;2024-01-15T06:34:06;17.60;;;12.07;;
7195;SDS011;3639;51.308;5.624;2024-01-15T06:36:32;19.80;;;10.90;;
7195;SDS011;3639;51.308;5.624;2024-01-15T06:38:58;20.87;;;11.13;;
7195;SDS011;3639;51.308;5.624;2024-01-15T06:41:23;20.60;;;9.83;;
7195;SDS011;3639;51.308;5.624;2024-01-15T06:43:50;13.47;;;8.90;;
7195;SDS011;3639;51.308;5.624;2024-01-15T06:46:19;14.63;;;8.70;;
7195;SDS011;3639;51.308;5.624;2024-01-15T06:48:46;14.80;;;8.03;;
7195;SDS011;3639;51.308;5.624;2024-01-15T06:51:11;11.70;;;8.50;;
7195;SDS011;3639;51.308;5.624;2024-01-15T06:53:37;12.83;;;8.03;;
7195;SDS011;3639;51.308;5.624;2024-01-15T06:56:03;11.93;;;7.23;;
7195;SDS011;3639;51.308;5.624;2024-01-15T06:58:30;14.20;;;7.73;;
7195;SDS011;3639;51.308;5.624;2024-01-15T07:00:56;9.93;;;7.67;;
7195;SDS011;3639;51.308;5.624;2024-01-15T07:03:22;9.13;;;6.10;;
7195;SDS011;3639;51.308;5.624;2024-01-15T07:05:48;10.43;;;6.33;;
7195;SDS011;3639;51.308;5.624;2024-01-15T07:08:14;10.73;;;6.97;;
7195;SDS011;3639;51.308;5.624;2024-01-15T07:10:39;13.37;;;5.90;;
7195;SDS011;3639;51.308;5.624;2024-01-15T07:13:05;8.23;;;6.30;;
7195;SDS011;3639;51.308;5.624;2024-01-15T07:15:30;11.33;;;7.33;;
7195;SDS011;3639;51.308;5.624;2024-01-15T07:17:56;8.97;;;7.10;;
7195;SDS011;3639;51.308;5.624;2024-01-15T07:20:22;8.50;;;6.43;;
7195;SDS011;3639;51.308;5.624;2024-01-15T07:22:47;9.20;;;6.87;;
7195;SDS011;3639;51.308;5.624;2024-01-15T07:25:13;9.27;;;6.43;;
7195;SDS011;3639;51.308;5.624;2024-01-15T07:27:38;11.47;;;6.50;;
7195;SDS011;3639;51.308;5.624;2024-01-15T07:30:04;9.37;;;5.83;;
7195;SDS011;3639;51.308;5.624;2024-01-15T07:32:31;10.17;;;6.13;;
7195;SDS011;3639;51.308;5.624;2024-01-15T07:34:57;7.57;;;6.00;;
7195;SDS011;3639;51.308;5.624;2024-01-15T07:37:24;7.23;;;5.83;;
7195;SDS011;3639;51.308;5.624;2024-01-15T07:39:50;9.53;;;6.60;;
7195;SDS011;3639;51.308;5.624;2024-01-15T07:42:15;8.50;;;6.50;;
7195;SDS011;3639;51.308;5.624;2024-01-15T07:44:41;6.97;;;6.00;;
7195;SDS011;3639;51.308;5.624;2024-01-15T07:47:07;7.90;;;5.53;;
7195;SDS011;3639;51.308;5.624;2024-01-15T07:49:34;7.90;;;5.47;;
7195;SDS011;3639;51.308;5.624;2024-01-15T07:52:00;8.30;;;5.63;;
7195;SDS011;3639;51.308;5.624;2024-01-15T07:54:25;5.50;;;4.90;;
7195;SDS011;3639;51.308;5.624;2024-01-15T07:56:58;7.33;;;5.23;;
7195;SDS011;3639;51.308;5.624;2024-01-15T07:59:25;6.50;;;5.03;;
7195;SDS011;3639;51.308;5.624;2024-01-15T08:01:51;8.10;;;5.20;;
7195;SDS011;3639;51.308;5.624;2024-01-15T08:04:17;8.43;;;5.40;;
7195;SDS011;3639;51.308;5.624;2024-01-15T08:06:43;6.00;;;5.40;;
7195;SDS011;3639;51.308;5.624;2024-01-15T08:09:10;8.40;;;5.73;;
7195;SDS011;3639;51.308;5.624;2024-01-15T08:11:35;11.50;;;5.87;;
7195;SDS011;3639;51.308;5.624;2024-01-15T08:14:01;10.10;;;6.23;;
7195;SDS011;3639;51.308;5.624;2024-01-15T08:16:27;10.03;;;7.20;;
7195;SDS011;3639;51.308;5.624;2024-01-15T08:18:53;10.20;;;6.17;;
7195;SDS011;3639;51.308;5.624;2024-01-15T08:21:18;9.57;;;6.33;;
7195;SDS011;3639;51.308;5.624;2024-01-15T08:23:44;9.00;;;6.40;;
7195;SDS011;3639;51.308;5.624;2024-01-15T08:26:10;8.27;;;5.20;;
7195;SDS011;3639;51.308;5.624;2024-01-15T08:28:36;11.83;;;6.90;;
7195;SDS011;3639;51.308;5.624;2024-01-15T08:31:02;12.73;;;6.33;;
7195;SDS011;3639;51.308;5.624;2024-01-15T08:33:28;12.00;;;6.13;;
7195;SDS011;3639;51.308;5.624;2024-01-15T08:35:54;10.00;;;6.50;;
7195;SDS011;3639;51.308;5.624;2024-01-15T08:38:20;10.53;;;5.93;;
7195;SDS011;3639;51.308;5.624;2024-01-15T08:40:45;8.70;;;5.10;;
7195;SDS011;3639;51.308;5.624;2024-01-15T08:43:11;6.43;;;5.30;;
7195;SDS011;3639;51.308;5.624;2024-01-15T08:45:37;6.83;;;5.20;;
7195;SDS011;3639;51.308;5.624;2024-01-15T08:48:03;7.37;;;4.67;;
7195;SDS011;3639;51.308;5.624;2024-01-15T08:50:29;4.50;;;4.07;;
7195;SDS011;3639;51.308;5.624;2024-01-15T08:52:59;4.83;;;4.33;;
7195;SDS011;3639;51.308;5.624;2024-01-15T08:55:25;4.43;;;3.83;;
7195;SDS011;3639;51.308;5.624;2024-01-15T08:57:50;5.30;;;3.30;;
7195;SDS011;3639;51.308;5.624;2024-01-15T09:00:16;3.77;;;3.37;;
7195;SDS011;3639;51.308;5.624;2024-01-15T09:02:42;4.80;;;2.80;;
7195;SDS011;3639;51.308;5.624;2024-01-15T09:05:08;3.07;;;2.80;;
7195;SDS011;3639;51.308;5.624;2024-01-15T09:07:34;3.23;;;2.90;;
7195;SDS011;3639;51.308;5.624;2024-01-15T09:10:00;3.30;;;3.00;;
7195;SDS011;3639;51.308;5.624;2024-01-15T09:12:26;3.13;;;2.83;;
7195;SDS011;3639;51.308;5.624;2024-01-15T09:14:52;2.83;;;2.63;;
7195;SDS011;3639;51.308;5.624;2024-01-15T09:17:18;3.20;;;2.90;;
7195;SDS011;3639;51.308;5.624;2024-01-15T09:19:44;5.13;;;2.60;;
7195;SDS011;3639;51.308;5.624;2024-01-15T09:22:12;2.80;;;2.60;;
7195;SDS011;3639;51.308;5.624;2024-01-15T09:24:39;2.73;;;2.47;;
7195;SDS011;3639;51.308;5.624;2024-01-15T09:27:06;2.63;;;2.43;;
7195;SDS011;3639;51.308;5.624;2024-01-15T09:29:31;2.50;;;2.30;;
7195;SDS011;3639;51.308;5.624;2024-01-15T09:31:57;2.97;;;2.70;;
7195;SDS011;3639;51.308;5.624;2024-01-15T09:34:23;6.53;;;3.40;;
7195;SDS011;3639;51.308;5.624;2024-01-15T09:36:49;3.47;;;3.17;;
7195;SDS011;3639;51.308;5.624;2024-01-15T09:39:14;3.60;;;3.30;;
7195;SDS011;3639;51.308;5.624;2024-01-15T09:41:40;3.67;;;3.23;;
7195;SDS011;3639;51.308;5.624;2024-01-15T09:44:06;3.40;;;3.10;;
7195;SDS011;3639;51.308;5.624;2024-01-15T09:46:33;10.57;;;4.83;;
7195;SDS011;3639;51.308;5.624;2024-01-15T09:49:00;3.37;;;3.07;;
7195;SDS011;3639;51.308;5.624;2024-01-15T09:51:27;3.53;;;3.27;;
7195;SDS011;3639;51.308;5.624;2024-01-15T09:53:56;4.80;;;4.40;;
7195;SDS011;3639;51.308;5.624;2024-01-15T09:56:22;3.40;;;3.10;;
7195;SDS011;3639;51.308;5.624;2024-01-15T09:58:48;2.80;;;2.60;;
7195;SDS011;3639;51.308;5.624;2024-01-15T10:01:16;3.90;;;3.50;;
7195;SDS011;3639;51.308;5.624;2024-01-15T10:03:42;3.80;;;3.50;;
7195;SDS011;3639;51.308;5.624;2024-01-15T10:06:08;10.80;;;6.80;;
7195;SDS011;3639;51.308;5.624;2024-01-15T10:08:36;6.27;;;4.87;;
7195;SDS011;3639;51.308;5.624;2024-01-15T10:11:02;27.87;;;17.73;;
7195;SDS011;3639;51.308;5.624;2024-01-15T10:13:29;21.57;;;16.97;;
7195;SDS011;3639;51.308;5.624;2024-01-15T10:15:55;7.23;;;6.40;;
7195;SDS011;3639;51.308;5.624;2024-01-15T10:18:21;7.20;;;4.50;;
7195;SDS011;3639;51.308;5.624;2024-01-15T10:20:46;11.90;;;6.37;;
7195;SDS011;3639;51.308;5.624;2024-01-15T10:23:14;11.27;;;9.53;;
7195;SDS011;3639;51.308;5.624;2024-01-15T10:25:41;9.43;;;7.30;;
7195;SDS011;3639;51.308;5.624;2024-01-15T10:28:07;8.40;;;7.00;;
7195;SDS011;3639;51.308;5.624;2024-01-15T10:30:33;4.97;;;3.83;;
7195;SDS011;3639;51.308;5.624;2024-01-15T10:32:59;7.47;;;4.43;;
7195;SDS011;3639;51.308;5.624;2024-01-15T10:35:27;6.17;;;5.40;;
7195;SDS011;3639;51.308;5.624;2024-01-15T10:37:54;8.67;;;5.37;;
7195;SDS011;3639;51.308;5.624;2024-01-15T10:40:19;9.13;;;6.23;;
7195;SDS011;3639;51.308;5.624;2024-01-15T10:42:45;13.23;;;6.83;;
7195;SDS011;3639;51.308;5.624;2024-01-15T10:45:12;14.50;;;7.60;;
7195;SDS011;3639;51.308;5.624;2024-01-15T10:47:41;12.67;;;8.57;;
7195;SDS011;3639;51.308;5.624;2024-01-15T10:50:07;20.03;;;9.67;;
7195;SDS011;3639;51.308;5.624;2024-01-15T10:52:37;16.60;;;8.70;;
7195;SDS011;3639;51.308;5.624;2024-01-15T10:55:05;18.93;;;8.43;;
7195;SDS011;3639;51.308;5.624;2024-01-15T10:57:33;13.27;;;8.13;;
7195;SDS011;3639;51.308;5.624;2024-01-15T11:00:02;14.57;;;8.70;;
7195;SDS011;3639;51.308;5.624;2024-01-15T11:02:30;17.17;;;9.63;;
7195;SDS011;3639;51.308;5.624;2024-01-15T11:05:01;24.87;;;10.10;;
7195;SDS011;3639;51.308;5.624;2024-01-15T11:07:27;15.97;;;9.50;;
7195;SDS011;3639;51.308;5.624;2024-01-15T11:09:54;21.77;;;8.53;;
7195;SDS011;3639;51.308;5.624;2024-01-15T11:12:20;15.23;;;9.20;;
7195;SDS011;3639;51.308;5.624;2024-01-15T11:14:46;16.53;;;8.07;;
7195;SDS011;3639;51.308;5.624;2024-01-15T11:17:12;20.60;;;8.53;;
7195;SDS011;3639;51.308;5.624;2024-01-15T11:24:55;6.77;;;5.10;;
7195;SDS011;3639;51.308;5.624;2024-01-15T11:30:09;6.33;;;5.43;;
7195;SDS011;3639;51.308;5.624;2024-01-15T11:32:36;9.90;;;5.20;;
7195;SDS011;3639;51.308;5.624;2024-01-15T11:35:06;11.90;;;5.20;;
7195;SDS011;3639;51.308;5.624;2024-01-15T11:42:57;5.80;;;3.70;;
7195;SDS011;3639;51.308;5.624;2024-01-15T11:45:23;3.67;;;3.37;;
7195;SDS011;3639;51.308;5.624;2024-01-15T11:50:40;4.33;;;3.23;;
7195;SDS011;3639;51.308;5.624;2024-01-15T11:53:48;4.13;;;3.20;;
7195;SDS011;3639;51.308;5.624;2024-01-15T11:56:14;4.30;;;2.90;;
7195;SDS011;3639;51.308;5.624;2024-01-15T11:58:43;4.30;;;2.50;;
7195;SDS011;3639;51.308;5.624;2024-01-15T12:01:12;4.67;;;2.80;;
7195;SDS011;3639;51.308;5.624;2024-01-15T12:03:38;4.77;;;2.97;;
7195;SDS011;3639;51.308;5.624;2024-01-15T12:06:08;4.00;;;2.73;;
7195;SDS011;3639;51.308;5.624;2024-01-15T12:08:35;4.27;;;3.10;;
7195;SDS011;3639;51.308;5.624;2024-01-15T12:11:00;3.70;;;3.30;;
7195;SDS011;3639;51.308;5.624;2024-01-15T12:13:35;3.20;;;3.00;;
7195;SDS011;3639;51.308;5.624;2024-01-15T12:16:01;2.77;;;2.57;;
7195;SDS011;3639;51.308;5.624;2024-01-15T12:18:29;3.10;;;2.80;;
7195;SDS011;3639;51.308;5.624;2024-01-15T12:20:54;3.40;;;3.00;;
7195;SDS011;3639;51.308;5.624;2024-01-15T12:23:20;2.83;;;2.63;;
7195;SDS011;3639;51.308;5.624;2024-01-15T12:25:45;2.80;;;2.60;;
7195;SDS011;3639;51.308;5.624;2024-01-15T12:28:12;3.73;;;2.77;;
7195;SDS011;3639;51.308;5.624;2024-01-15T12:30:38;3.37;;;3.13;;
7195;SDS011;3639;51.308;5.624;2024-01-15T12:33:04;2.63;;;2.43;;
7195;SDS011;3639;51.308;5.624;2024-01-15T12:35:31;2.60;;;2.50;;
7195;SDS011;3639;51.308;5.624;2024-01-15T12:37:59;3.00;;;2.80;;
7195;SDS011;3639;51.308;5.624;2024-01-15T12:40:27;3.03;;;2.50;;
7195;SDS011;3639;51.308;5.624;2024-01-15T12:42:53;2.27;;;2.10;;
7195;SDS011;3639;51.308;5.624;2024-01-15T12:45:19;3.93;;;2.30;;
7195;SDS011;3639;51.308;5.624;2024-01-15T12:47:45;2.37;;;2.20;;
7195;SDS011;3639;51.308;5.624;2024-01-15T12:50:12;2.40;;;2.17;;
7195;SDS011;3639;51.308;5.624;2024-01-15T12:52:40;2.43;;;2.30;;
7195;SDS011;3639;51.308;5.624;2024-01-15T12:55:07;4.87;;;2.50;;
7195;SDS011;3639;51.308;5.624;2024-01-15T12:57:36;3.00;;;2.30;;
7195;SDS011;3639;51.308;5.624;2024-01-15T13:00:03;4.50;;;2.73;;
7195;SDS011;3639;51.308;5.624;2024-01-15T13:02:36;2.13;;;2.03;;
7195;SDS011;3639;51.308;5.624;2024-01-15T13:05:02;2.30;;;2.20;;
7195;SDS011;3639;51.308;5.624;2024-01-15T13:07:29;3.07;;;2.20;;
7195;SDS011;3639;51.308;5.624;2024-01-15T13:09:55;2.20;;;2.03;;
7195;SDS011;3639;51.308;5.624;2024-01-15T13:12:20;2.10;;;2.00;;
7195;SDS011;3639;51.308;5.624;2024-01-15T13:14:47;3.53;;;2.10;;
7195;SDS011;3639;51.308;5.624;2024-01-15T13:17:13;2.03;;;1.90;;
7195;SDS011;3639;51.308;5.624;2024-01-15T13:19:41;2.30;;;2.10;;
7195;SDS011;3639;51.308;5.624;2024-01-15T13:22:07;2.67;;;2.40;;
7195;SDS011;3639;51.308;5.624;2024-01-15T13:24:34;2.70;;;2.50;;
7195;SDS011;3639;51.308;5.624;2024-01-15T13:27:01;2.77;;;2.20;;
7195;SDS011;3639;51.308;5.624;2024-01-15T13:29:27;5.40;;;2.50;;
7195;SDS011;3639;51.308;5.624;2024-01-15T13:31:53;2.80;;;2.13;;
7195;SDS011;3639;51.308;5.624;2024-01-15T13:34:19;2.10;;;2.00;;
7195;SDS011;3639;51.308;5.624;2024-01-15T13:36:44;2.83;;;2.37;;
7195;SDS011;3639;51.308;5.624;2024-01-15T13:39:10;2.60;;;2.40;;
7195;SDS011;3639;51.308;5.624;2024-01-15T13:41:36;2.30;;;2.10;;
7195;SDS011;3639;51.308;5.624;2024-01-15T13:44:01;2.70;;;2.50;;
7195;SDS011;3639;51.308;5.624;2024-01-15T13:46:28;2.70;;;2.50;;
7195;SDS011;3639;51.308;5.624;2024-01-15T13:48:58;2.53;;;2.30;;
7195;SDS011;3639;51.308;5.624;2024-01-15T13:51:24;2.80;;;2.60;;
7195;SDS011;3639;51.308;5.624;2024-01-15T13:53:50;2.70;;;2.50;;
7195;SDS011;3639;51.308;5.624;2024-01-15T13:56:16;3.10;;;2.90;;
7195;SDS011;3639;51.308;5.624;2024-01-15T13:58:42;7.20;;;4.50;;
7195;SDS011;3639;51.308;5.624;2024-01-15T14:01:08;6.03;;;4.80;;
7195;SDS011;3639;51.308;5.624;2024-01-15T14:03:34;3.80;;;3.50;;
7195;SDS011;3639;51.308;5.624;2024-01-15T14:06:00;5.47;;;4.97;;
7195;SDS011;3639;51.308;5.624;2024-01-15T14:08:28;6.13;;;4.40;;
7195;SDS011;3639;51.308;5.624;2024-01-15T14:10:53;9.67;;;6.43;;
7195;SDS011;3639;51.308;5.624;2024-01-15T14:13:20;4.07;;;3.53;;
7195;SDS011;3639;51.308;5.624;2024-01-15T14:15:47;4.20;;;3.50;;
7195;SDS011;3639;51.308;5.624;2024-01-15T14:18:13;6.07;;;5.20;;
7195;SDS011;3639;51.308;5.624;2024-01-15T14:20:41;7.07;;;3.73;;
7195;SDS011;3639;51.308;5.624;2024-01-15T14:23:08;5.47;;;4.73;;
7195;SDS011;3639;51.308;5.624;2024-01-15T14:25:34;4.00;;;3.70;;
7195;SDS011;3639;51.308;5.624;2024-01-15T14:27:59;3.93;;;3.10;;
7195;SDS011;3639;51.308;5.624;2024-01-15T14:30:25;5.40;;;4.20;;
7195;SDS011;3639;51.308;5.624;2024-01-15T14:32:50;4.50;;;4.10;;
7195;SDS011;3639;51.308;5.624;2024-01-15T14:35:16;8.40;;;3.30;;
7195;SDS011;3639;51.308;5.624;2024-01-15T14:37:42;5.23;;;4.20;;
7195;SDS011;3639;51.308;5.624;2024-01-15T14:40:07;7.40;;;3.73;;
7195;SDS011;3639;51.308;5.624;2024-01-15T14:42:33;3.40;;;3.20;;
7195;SDS011;3639;51.308;5.624;2024-01-15T14:44:59;5.13;;;3.37;;
7195;SDS011;3639;51.308;5.624;2024-01-15T14:47:26;5.63;;;5.03;;
7195;SDS011;3639;51.308;5.624;2024-01-15T14:49:52;5.37;;;4.87;;
7195;SDS011;3639;51.308;5.624;2024-01-15T14:52:18;8.80;;;4.50;;
7195;SDS011;3639;51.308;5.624;2024-01-15T14:54:43;5.80;;;3.90;;
7195;SDS011;3639;51.308;5.624;2024-01-15T14:57:09;5.57;;;4.00;;
7195;SDS011;3639;51.308;5.624;2024-01-15T14:59:34;5.47;;;4.13;;
7195;SDS011;3639;51.308;5.624;2024-01-15T15:02:00;4.93;;;3.67;;
7195;SDS011;3639;51.308;5.624;2024-01-15T15:04:26;8.80;;;4.70;;
7195;SDS011;3639;51.308;5.624;2024-01-15T15:06:51;7.07;;;4.50;;
7195;SDS011;3639;51.308;5.624;2024-01-15T15:09:17;8.80;;;4.53;;
7195;SDS011;3639;51.308;5.624;2024-01-15T15:11:43;7.30;;;4.17;;